Annapolis, Missouri
Current Conditions -  °F | °C
As of 8:55 PM on Wednesday 26 Nov 2014 (Local Time) from KFAM Reporting Station
Overcast Overcast  
Wind Chill: 29°   Ceiling: 1800
Heat Index: 37°   Visibility: 10mi
Dew Point: 34°   Wind: 13mph
Humidity: 87%   Direction: 270°W
Pressure: 30.09"   Gusts: 18mph
Location:  37.36°N, 90.7°W
Report Text: KFAM 270255Z AUTO 27011G16KT 230V290 10SM SCT014 BKN018 OVC034 03/01 A3009 RMK AO1 60003 52020
Loading
Personal Weather Stations






























Interactive Weather Map New forecast layout! Learn more

10-Day Weather Forecast

Advertisements
Track Severe Weather on mobile